Time;durP1;ratioP1;P1;durP2;ratioP2;P2;SDS_P1;SDS_P2;PMS_P1;PMS_P2;Temp;Humidity;BMP_temperature;BMP_pressure;BME280_temperature;BME280_humidity;BME280_pressure;Samples;Min_cycle;Max_cycle;Signal;HPM_P1;HPM_P2
2022/11/15 00:01:57;;;;;;;9.13;8.40;;;10.20;94.70;;;;;;5062113;28;20431;-76
2022/11/15 00:04:25;;;;;;;10.00;9.18;;;10.20;94.70;;;;;;5063634;28;20517;-76
2022/11/15 00:06:52;;;;;;;9.32;8.52;;;10.30;94.90;;;;;;5064422;28;20431;-76
2022/11/15 00:09:19;;;;;;;9.18;8.40;;;10.30;94.80;;;;;;5064239;28;20431;-77
2022/11/15 00:11:46;;;;;;;9.50;8.70;;;10.40;95.20;;;;;;5063581;28;20487;-76
2022/11/15 00:14:12;;;;;;;9.70;8.80;;;10.40;94.60;;;;;;5063490;28;20450;-76
2022/11/15 00:16:39;;;;;;;8.93;8.23;;;10.50;94.60;;;;;;5064024;28;20431;-76
2022/11/15 00:19:06;;;;;;;9.80;8.90;;;10.50;94.50;;;;;;5061713;28;20430;-76
2022/11/15 00:21:34;;;;;;;9.35;8.55;;;10.50;94.50;;;;;;5056036;28;20450;-76
2022/11/15 00:24:01;;;;;;;9.38;8.52;;;10.50;94.50;;;;;;5057731;28;20436;-76
2022/11/15 00:26:27;;;;;;;9.75;8.95;;;10.50;94.60;;;;;;5057897;28;20427;-76
2022/11/15 00:28:54;;;;;;;9.40;8.50;;;10.60;94.70;;;;;;5058909;28;20442;-77
2022/11/15 00:31:21;;;;;;;9.30;8.40;;;10.60;94.70;;;;;;5061418;28;20455;-77
2022/11/15 00:33:48;;;;;;;9.00;8.20;;;10.60;94.70;;;;;;5059111;28;20435;-77
2022/11/15 00:36:14;;;;;;;9.43;8.60;;;10.60;94.60;;;;;;5058958;28;20441;-77
2022/11/15 00:38:43;;;;;;;10.13;9.27;;;10.70;94.60;;;;;;5064560;28;20423;-77
2022/11/15 00:41:09;;;;;;;9.27;8.48;;;10.70;94.60;;;;;;5059335;28;20436;-77
2022/11/15 00:43:37;;;;;;;9.18;8.27;;;10.70;94.60;;;;;;5055900;28;20450;-75
2022/11/15 00:46:03;;;;;;;9.00;8.30;;;10.80;94.60;;;;;;5061026;28;20431;-77
2022/11/15 00:48:31;;;;;;;9.88;9.07;;;10.80;94.70;;;;;;5057786;28;20537;-76
2022/11/15 00:50:58;;;;;;;10.05;9.05;;;10.80;94.70;;;;;;5061903;28;20833;-76
2022/11/15 00:53:25;;;;;;;9.13;8.33;;;10.80;94.60;;;;;;5057624;28;20439;-76
2022/11/15 00:55:53;;;;;;;9.63;8.82;;;10.80;94.60;;;;;;5058606;28;20780;-76
2022/11/15 00:58:23;;;;;;;9.60;8.70;;;10.90;94.60;;;;;;5062222;28;20881;-77
2022/11/15 01:00:49;;;;;;;9.63;8.82;;;10.80;94.70;;;;;;5061234;28;20428;-77
2022/11/15 01:03:16;;;;;;;9.75;8.85;;;10.90;94.70;;;;;;5050507;28;20436;-76
2022/11/15 01:05:43;;;;;;;9.88;9.02;;;10.90;94.70;;;;;;5062101;28;20782;-76
2022/11/15 01:08:14;;;;;;;9.48;8.68;;;10.90;94.60;;;;;;5060275;28;20445;-77
2022/11/15 01:10:41;;;;;;;9.90;9.10;;;10.90;94.70;;;;;;5061780;28;20441;-76
2022/11/15 01:13:09;;;;;;;9.40;8.70;;;10.90;94.70;;;;;;5059232;28;20431;-77
2022/11/15 01:15:40;;;;;;;9.75;8.95;;;10.90;94.80;;;;;;5060459;28;20431;-76
2022/11/15 01:18:06;;;;;;;9.40;8.50;;;10.90;94.80;;;;;;5063443;28;20441;-78
2022/11/15 01:20:33;;;;;;;9.37;8.57;;;11.00;94.80;;;;;;5061389;28;20743;-77
2022/11/15 01:23:00;;;;;;;9.30;8.50;;;11.00;94.80;;;;;;5054735;28;20452;-77
2022/11/15 01:25:27;;;;;;;9.60;8.85;;;11.00;94.80;;;;;;5059074;28;20432;-77
2022/11/15 01:27:53;;;;;;;10.38;9.48;;;11.00;94.90;;;;;;5060899;28;20430;-77
2022/11/15 01:30:21;;;;;;;9.60;8.70;;;11.00;95.20;;;;;;5058317;28;20903;-77
2022/11/15 01:32:48;;;;;;;10.60;9.57;;;11.00;94.70;;;;;;5055561;28;20887;-77
2022/11/15 01:35:15;;;;;;;12.98;9.55;;;11.10;94.80;;;;;;5056445;28;20436;-77
2022/11/15 01:37:42;;;;;;;9.90;9.10;;;11.10;94.70;;;;;;5061419;28;20513;-78
2022/11/15 01:40:09;;;;;;;9.70;8.80;;;11.10;94.70;;;;;;5053762;28;20450;-77
2022/11/15 01:42:36;;;;;;;10.47;9.57;;;11.10;94.80;;;;;;5058652;28;20946;-77
2022/11/15 01:45:03;;;;;;;10.00;9.10;;;11.10;94.80;;;;;;5053306;28;20450;-77
2022/11/15 01:47:34;;;;;;;10.20;9.20;;;11.10;94.80;;;;;;5061662;28;20434;-77
2022/11/15 01:50:03;;;;;;;10.27;9.48;;;11.10;94.80;;;;;;5057723;28;20446;-77
2022/11/15 01:52:33;;;;;;;9.70;8.70;;;11.10;94.90;;;;;;5058699;28;20438;-77
2022/11/15 01:55:06;;;;;;;10.05;9.18;;;11.20;94.90;;;;;;5054462;28;20427;-77
2022/11/15 01:57:33;;;;;;;9.25;8.45;;;11.20;94.80;;;;;;5051525;28;20525;-77
2022/11/15 02:00:02;;;;;;;9.70;8.90;;;11.20;94.80;;;;;;5054877;28;20440;-77
2022/11/15 02:02:29;;;;;;;9.90;9.00;;;11.20;94.80;;;;;;5064258;28;20511;-77
2022/11/15 02:04:58;;;;;;;10.63;9.63;;;11.20;94.80;;;;;;5058508;28;20451;-77
2022/11/15 02:07:25;;;;;;;9.70;8.70;;;11.30;94.80;;;;;;5065335;28;20427;-77
2022/11/15 02:09:52;;;;;;;10.52;9.63;;;11.30;94.80;;;;;;5059527;28;20419;-77
2022/11/15 02:12:21;;;;;;;10.35;9.50;;;11.30;94.80;;;;;;5059309;28;20531;-77
2022/11/15 02:14:52;;;;;;;10.63;9.63;;;11.30;94.80;;;;;;5057846;28;20452;-77
2022/11/15 02:17:32;;;;;;;10.20;9.30;;;11.30;94.90;;;;;;5061718;28;20918;-77
2022/11/15 02:20:34;;;;;;;9.90;8.90;;;11.20;94.90;;;;;;5055815;28;20433;-77
2022/11/15 02:23:31;;;;;;;10.90;10.00;;;11.20;95.00;;;;;;5057140;28;20919;-77
2022/11/15 02:26:15;;;;;;;9.17;8.40;;;11.20;95.10;;;;;;5063089;28;20430;-77
2022/11/15 02:28:59;;;;;;;9.30;8.45;;;11.20;95.10;;;;;;5058980;28;20431;-77
2022/11/15 02:31:32;;;;;;;10.40;9.50;;;11.30;95.20;;;;;;5063180;28;20454;-77
2022/11/15 02:34:06;;;;;;;9.98;9.07;;;11.30;95.20;;;;;;5062023;28;20431;-77
2022/11/15 02:36:40;;;;;;;9.85;8.93;;;11.30;95.10;;;;;;5063389;28;20429;-77
2022/11/15 02:39:14;;;;;;;9.57;8.68;;;11.30;95.10;;;;;;5063011;28;20438;-77
2022/11/15 02:41:46;;;;;;;9.40;8.50;;;11.40;95.00;;;;;;5059777;28;20429;-77
2022/11/15 02:44:17;;;;;;;9.40;8.60;;;11.40;95.00;;;;;;5064384;28;20427;-78
2022/11/15 02:49:34;;;;;;;9.70;8.90;;;11.40;94.90;;;;;;5064595;28;20701;-77
2022/11/15 02:52:01;;;;;;;9.20;8.40;;;11.50;94.90;;;;;;5061039;28;21179;-77
2022/11/15 02:54:31;;;;;;;9.70;8.80;;;11.50;94.90;;;;;;5055121;28;20914;-77
2022/11/15 02:57:04;;;;;;;8.80;8.10;;;11.50;94.90;;;;;;5065257;28;20442;-77
2022/11/15 03:00:04;;;;;;;8.57;7.78;;;11.50;94.90;;;;;;5053533;28;20432;-77
2022/11/15 03:03:07;;;;;;;8.68;7.88;;;11.50;94.90;;;;;;5038025;28;20425;-77
2022/11/15 03:05:42;;;;;;;8.70;7.93;;;11.50;94.90;;;;;;5065149;28;20453;-77
2022/11/15 03:08:16;;;;;;;8.65;7.85;;;11.50;94.80;;;;;;5062700;28;20427;-77
2022/11/15 03:10:50;;;;;;;8.30;7.50;;;11.60;94.80;;;;;;5056450;28;20974;-77
2022/11/15 03:13:27;;;;;;;7.82;7.13;;;11.60;94.70;;;;;;5059255;28;20458;-77
2022/11/15 03:16:02;;;;;;;8.30;7.60;;;11.60;94.70;;;;;;5056282;28;20450;-77
2022/11/15 03:18:34;;;;;;;7.75;7.15;;;11.70;94.60;;;;;;5063910;28;21057;-77
2022/11/15 03:21:05;;;;;;;8.30;7.50;;;11.70;94.80;;;;;;5064611;28;20769;-77
2022/11/15 03:23:34;;;;;;;7.75;7.05;;;11.70;94.50;;;;;;5056837;28;20450;-77
2022/11/15 03:26:01;;;;;;;8.05;6.80;;;11.80;94.40;;;;;;5060618;28;20562;-77
2022/11/15 03:28:35;;;;;;;7.68;7.00;;;11.80;94.30;;;;;;5056663;28;20436;-77
2022/11/15 03:31:46;;;;;;;7.53;6.72;;;11.80;94.20;;;;;;5063891;28;20431;-77
2022/11/15 03:33:53;;;;;;;7.97;7.37;;;11.80;94.20;;;;;;5060384;28;20506;-78
2022/11/15 03:36:22;;;;;;;7.90;7.30;;;11.80;94.20;;;;;;5063580;28;20451;-77
2022/11/15 03:38:49;;;;;;;8.18;7.38;;;11.80;94.20;;;;;;5064631;28;20538;-77
2022/11/15 03:41:22;;;;;;;7.20;6.50;;;11.80;94.20;;;;;;5057319;28;20924;-77
2022/11/15 03:43:56;;;;;;;7.90;7.20;;;11.80;94.20;;;;;;5059147;28;20778;-77
2022/11/15 03:46:27;;;;;;;8.43;7.60;;;11.80;94.20;;;;;;5055438;28;20435;-77
2022/11/15 03:49:01;;;;;;;7.90;7.20;;;11.80;94.10;;;;;;5060601;28;20447;-77
2022/11/15 03:51:29;;;;;;;7.38;6.78;;;11.80;94.00;;;;;;5061662;28;20530;-77
2022/11/15 03:53:56;;;;;;;7.70;7.00;;;11.90;94.00;;;;;;5062002;28;20933;-77
2022/11/15 03:56:23;;;;;;;8.10;7.50;;;11.80;93.90;;;;;;5059935;28;20427;-77
2022/11/15 03:58:49;;;;;;;8.17;7.47;;;11.90;94.00;;;;;;5053859;28;20956;-77
2022/11/15 04:01:16;;;;;;;8.05;7.45;;;11.80;94.00;;;;;;5061769;28;20490;-77
2022/11/15 04:03:43;;;;;;;8.30;7.70;;;11.80;93.90;;;;;;5063500;28;20449;-77
2022/11/15 04:06:11;;;;;;;8.20;7.60;;;11.80;93.90;;;;;;5063606;28;20429;-77
2022/11/15 04:08:38;;;;;;;8.10;7.40;;;11.80;94.00;;;;;;5066406;28;20427;-77
2022/11/15 04:11:05;;;;;;;8.15;7.45;;;11.80;94.10;;;;;;5063543;28;20433;-78
2022/11/15 04:13:32;;;;;;;8.70;7.90;;;11.80;94.00;;;;;;5061760;28;20428;-77
2022/11/15 04:15:58;;;;;;;8.50;7.70;;;11.80;94.00;;;;;;5062027;28;20434;-78
2022/11/15 04:18:25;;;;;;;8.10;7.40;;;11.80;94.10;;;;;;5058254;28;20431;-77
2022/11/15 04:26:27;;;;;;;8.48;7.78;;;11.80;94.00;;;;;;5061140;28;20423;-77
2022/11/15 04:31:38;;;;;;;8.43;7.72;;;11.80;94.10;;;;;;5055850;28;20442;-77
2022/11/15 04:34:05;;;;;;;7.95;7.45;;;11.90;94.10;;;;;;5058959;28;20431;-77
2022/11/15 04:39:17;;;;;;;8.18;7.57;;;11.90;94.00;;;;;;5067995;28;20510;-78
2022/11/15 04:41:44;;;;;;;8.52;7.82;;;11.90;94.30;;;;;;5060829;28;20427;-78
2022/11/15 04:44:11;;;;;;;8.05;7.40;;;11.90;94.00;;;;;;5057134;28;20866;-77
2022/11/15 04:46:38;;;;;;;7.90;7.30;;;11.90;94.00;;;;;;5062512;28;20440;-78
2022/11/15 04:49:04;;;;;;;8.63;7.93;;;12.00;94.00;;;;;;5059850;28;20603;-77
2022/11/15 04:51:31;;;;;;;7.72;7.03;;;12.00;93.90;;;;;;5059699;28;20423;-75
2022/11/15 04:53:58;;;;;;;8.10;7.50;;;12.00;93.90;;;;;;5059163;28;20458;-74
2022/11/15 04:56:26;;;;;;;7.88;7.18;;;12.00;93.90;;;;;;5058958;28;20462;-76
2022/11/15 04:58:53;;;;;;;8.00;7.40;;;12.00;94.00;;;;;;5060730;28;20435;-73
2022/11/15 05:01:19;;;;;;;7.68;7.07;;;12.00;94.00;;;;;;5059605;28;20547;-72
2022/11/15 05:06:31;;;;;;;8.15;7.45;;;12.00;93.80;;;;;;5054562;28;20415;-74
2022/11/15 05:08:58;;;;;;;7.75;7.05;;;11.90;93.90;;;;;;5053729;28;20415;-72
2022/11/15 05:11:27;;;;;;;7.38;6.88;;;11.90;94.10;;;;;;5062064;28;20424;-73
2022/11/15 05:13:54;;;;;;;8.10;7.50;;;11.90;94.20;;;;;;5060757;28;20435;-72
2022/11/15 05:16:21;;;;;;;7.50;6.90;;;11.90;94.30;;;;;;5059178;28;20446;-73
2022/11/15 05:18:47;;;;;;;7.63;7.03;;;11.80;94.40;;;;;;5050601;28;20435;-72
2022/11/15 05:21:15;;;;;;;7.90;7.30;;;11.80;94.50;;;;;;5056989;28;20901;-73
2022/11/15 05:23:42;;;;;;;7.43;6.88;;;11.80;94.60;;;;;;5056346;28;20517;-74
2022/11/15 05:26:09;;;;;;;7.85;7.20;;;11.70;94.70;;;;;;5053529;28;21196;-74
2022/11/15 05:28:38;;;;;;;7.22;6.63;;;11.70;94.80;;;;;;5052826;28;20433;-73
2022/11/15 05:31:07;;;;;;;6.70;6.10;;;11.60;94.90;;;;;;5058937;28;20427;-73
2022/11/15 05:33:35;;;;;;;7.30;6.70;;;11.60;95.00;;;;;;5053920;28;20436;-73
2022/11/15 05:36:08;;;;;;;6.53;6.03;;;11.60;95.10;;;;;;5055530;28;20435;-74
2022/11/15 05:38:35;;;;;;;7.00;6.40;;;11.60;95.10;;;;;;5062593;28;20509;-72
2022/11/15 05:41:03;;;;;;;7.60;7.00;;;11.60;95.10;;;;;;5054936;28;20424;-72
2022/11/15 05:43:33;;;;;;;7.40;6.80;;;11.50;95.30;;;;;;5056441;28;20539;-73
2022/11/15 05:46:02;;;;;;;7.50;6.80;;;11.50;95.40;;;;;;5051926;28;20438;-73
2022/11/15 05:48:29;;;;;;;6.90;6.40;;;11.50;95.60;;;;;;5056561;28;20439;-73
2022/11/15 05:50:57;;;;;;;7.13;6.53;;;11.40;95.60;;;;;;5058723;28;20511;-74
2022/11/15 05:53:25;;;;;;;6.70;6.20;;;11.40;95.70;;;;;;5058333;28;20435;-74
2022/11/15 05:55:52;;;;;;;7.07;6.47;;;11.30;95.90;;;;;;5057181;28;20763;-69
2022/11/15 05:58:21;;;;;;;8.15;7.45;;;11.30;95.90;;;;;;5056219;28;20805;-73
2022/11/15 06:00:48;;;;;;;7.15;6.55;;;11.30;96.00;;;;;;5048948;28;20791;-73
2022/11/15 06:03:17;;;;;;;7.30;6.70;;;11.30;96.00;;;;;;5051867;28;21890;-73
2022/11/15 06:05:44;;;;;;;7.03;6.43;;;11.30;96.10;;;;;;5063952;28;20429;-73
2022/11/15 06:08:11;;;;;;;7.53;6.82;;;11.30;96.20;;;;;;5059006;28;20442;-73
2022/11/15 06:10:38;;;;;;;7.10;6.50;;;11.20;96.20;;;;;;5052613;28;20956;-73
2022/11/15 06:13:05;;;;;;;6.68;6.18;;;11.20;96.20;;;;;;5051117;28;20425;-73
2022/11/15 06:15:33;;;;;;;6.47;5.90;;;11.20;96.20;;;;;;5062346;28;20487;-72
2022/11/15 06:18:00;;;;;;;6.60;6.00;;;11.20;96.20;;;;;;5052129;28;20435;-73
2022/11/15 06:20:29;;;;;;;6.28;5.78;;;11.20;96.10;;;;;;5056559;28;20440;-73
2022/11/15 06:22:58;;;;;;;6.40;5.90;;;11.20;96.10;;;;;;5057736;28;20438;-73
2022/11/15 06:25:25;;;;;;;5.90;5.50;;;11.10;96.10;;;;;;5058998;28;20435;-73
2022/11/15 06:27:52;;;;;;;6.13;5.72;;;11.20;96.10;;;;;;5059468;28;20915;-73
2022/11/15 06:30:19;;;;;;;5.55;5.05;;;11.10;96.10;;;;;;5055507;28;20437;-73
2022/11/15 06:32:46;;;;;;;5.13;4.72;;;11.10;96.10;;;;;;5054731;28;20434;-72
2022/11/15 06:35:13;;;;;;;5.50;5.10;;;11.10;95.90;;;;;;5060537;28;20447;-73
2022/11/15 06:37:42;;;;;;;5.22;4.82;;;11.10;95.80;;;;;;5058731;28;20431;-72
2022/11/15 06:40:11;;;;;;;5.00;4.60;;;11.10;95.60;;;;;;5055829;28;20427;-73
2022/11/15 06:42:37;;;;;;;5.47;5.00;;;11.10;95.50;;;;;;5058991;28;20420;-73
2022/11/15 06:45:06;;;;;;;5.40;5.00;;;11.10;95.50;;;;;;5061093;28;20432;-74
2022/11/15 06:47:33;;;;;;;5.53;5.13;;;11.10;95.50;;;;;;5073615;28;20427;-73
2022/11/15 06:50:00;;;;;;;5.13;4.72;;;11.10;95.50;;;;;;5063284;28;20791;-73
2022/11/15 06:52:26;;;;;;;5.35;4.88;;;11.00;95.60;;;;;;5052768;28;20913;-73
2022/11/15 06:54:54;;;;;;;5.47;5.07;;;11.00;95.60;;;;;;5060684;28;20905;-73
2022/11/15 06:57:21;;;;;;;5.57;5.07;;;11.00;95.70;;;;;;5055799;28;20417;-73
2022/11/15 06:59:48;;;;;;;4.90;4.50;;;10.90;95.80;;;;;;5061664;28;20431;-73
2022/11/15 07:02:15;;;;;;;5.43;4.95;;;10.90;95.90;;;;;;5062655;28;20431;-73
2022/11/15 07:04:41;;;;;;;5.45;4.95;;;10.90;95.90;;;;;;5061557;28;20439;-73
2022/11/15 07:07:08;;;;;;;7.18;5.28;;;10.90;95.80;;;;;;5065009;28;20419;-73
2022/11/15 07:09:35;;;;;;;5.30;4.90;;;10.90;95.70;;;;;;5061004;28;20535;-72
2022/11/15 07:12:03;;;;;;;5.10;4.60;;;10.90;95.60;;;;;;5063138;28;20449;-73
2022/11/15 07:14:30;;;;;;;4.80;4.40;;;11.00;95.40;;;;;;5058997;28;20429;-73
2022/11/15 07:16:57;;;;;;;5.82;4.50;;;10.90;95.30;;;;;;5061721;28;20434;-74
2022/11/15 07:19:23;;;;;;;4.55;4.15;;;11.00;95.20;;;;;;5060403;28;20443;-73
2022/11/15 07:21:50;;;;;;;4.70;4.30;;;11.00;95.10;;;;;;5052182;28;20425;-73
2022/11/15 07:24:17;;;;;;;4.68;4.32;;;11.00;95.10;;;;;;5062206;28;20420;-73
2022/11/15 07:26:44;;;;;;;5.10;4.60;;;11.00;95.10;;;;;;5065714;28;20849;-73
2022/11/15 07:29:12;;;;;;;4.80;4.47;;;11.00;95.10;;;;;;5056448;28;21074;-73
2022/11/15 07:31:39;;;;;;;4.80;4.40;;;11.00;94.90;;;;;;5058770;28;20429;-74
2022/11/15 07:34:06;;;;;;;5.20;4.77;;;11.00;94.90;;;;;;5064298;28;20498;-73
2022/11/15 07:36:33;;;;;;;3.90;3.50;;;11.00;94.70;;;;;;5068923;28;20412;-73
2022/11/15 07:38:59;;;;;;;4.75;4.35;;;11.00;94.10;;;;;;5077582;28;20618;-73
2022/11/15 07:41:26;;;;;;;6.18;4.30;;;11.00;94.10;;;;;;5056381;28;20877;-73
2022/11/15 07:43:53;;;;;;;4.32;3.92;;;11.10;93.80;;;;;;5059669;28;20417;-73
2022/11/15 07:46:21;;;;;;;3.83;3.53;;;11.10;93.70;;;;;;5056781;28;20413;-73
2022/11/15 07:48:48;;;;;;;4.70;3.80;;;11.10;93.30;;;;;;5061194;28;20412;-73
2022/11/15 07:51:15;;;;;;;3.63;3.03;;;11.20;93.00;;;;;;5054532;28;20434;-74
2022/11/15 07:53:42;;;;;;;2.90;2.70;;;11.30;92.50;;;;;;5056611;28;20808;-74
2022/11/15 07:56:10;;;;;;;3.00;2.70;;;11.40;92.10;;;;;;5061530;28;20444;-74
2022/11/15 07:58:37;;;;;;;2.88;2.50;;;11.50;91.60;;;;;;5062014;28;20435;-75
2022/11/15 08:01:04;;;;;;;2.80;2.60;;;11.50;91.20;;;;;;5055047;28;20507;-75
2022/11/15 08:03:33;;;;;;;3.10;2.80;;;11.60;90.90;;;;;;5063177;28;20476;-75
2022/11/15 08:06:00;;;;;;;3.00;2.70;;;11.70;90.70;;;;;;5060206;28;20435;-75
2022/11/15 08:08:27;;;;;;;2.70;2.50;;;11.70;90.60;;;;;;5061619;28;20873;-75
2022/11/15 08:10:53;;;;;;;3.00;2.70;;;11.70;90.50;;;;;;5060883;28;20427;-75
2022/11/15 08:13:20;;;;;;;3.67;3.00;;;11.80;90.60;;;;;;5060143;28;20468;-75
2022/11/15 08:15:47;;;;;;;3.15;2.88;;;11.80;90.60;;;;;;5061878;28;20848;-75
2022/11/15 08:18:16;;;;;;;3.90;3.00;;;11.80;90.50;;;;;;5060036;28;20815;-75
2022/11/15 08:20:45;;;;;;;3.53;3.10;;;11.80;90.70;;;;;;5066977;28;20428;-75
2022/11/15 08:23:12;;;;;;;3.67;3.17;;;11.80;90.70;;;;;;5061330;28;20438;-74
2022/11/15 08:25:39;;;;;;;3.35;3.05;;;11.80;90.60;;;;;;5055739;28;20746;-75
2022/11/15 08:28:08;;;;;;;3.67;2.53;;;11.80;90.30;;;;;;5060019;28;20466;-75
2022/11/15 08:30:37;;;;;;;2.90;2.65;;;11.80;90.20;;;;;;5059991;28;20435;-74
2022/11/15 08:33:04;;;;;;;2.92;2.65;;;11.90;89.80;;;;;;5052262;28;20772;-75
2022/11/15 08:35:31;;;;;;;2.80;2.22;;;11.90;88.90;;;;;;5056120;28;20905;-74
2022/11/15 08:37:59;;;;;;;3.70;2.70;;;11.90;88.30;;;;;;5059738;28;20427;-75
2022/11/15 08:40:27;;;;;;;2.70;2.50;;;11.90;89.00;;;;;;5054474;28;20536;-75
2022/11/15 08:42:54;;;;;;;3.63;2.70;;;12.00;88.90;;;;;;5060516;28;20811;-74
2022/11/15 08:45:21;;;;;;;3.40;2.58;;;12.00;88.40;;;;;;5059287;28;20446;-74
2022/11/15 08:47:48;;;;;;;3.10;2.60;;;12.10;87.50;;;;;;5062380;28;20432;-74
2022/11/15 08:50:15;;;;;;;3.40;2.55;;;12.30;86.30;;;;;;5061694;28;20423;-75
2022/11/15 08:52:42;;;;;;;2.90;2.60;;;12.40;86.10;;;;;;5058326;28;20431;-75
2022/11/15 08:55:10;;;;;;;2.53;2.33;;;12.40;85.60;;;;;;5059253;28;20486;-75
2022/11/15 08:57:37;;;;;;;3.22;2.22;;;12.50;85.10;;;;;;5056832;28;20423;-75
2022/11/15 09:00:05;;;;;;;4.50;2.50;;;12.60;83.50;;;;;;5056911;28;20431;-74
2022/11/15 09:02:31;;;;;;;2.47;2.28;;;12.70;83.00;;;;;;5061477;28;20526;-75
2022/11/15 09:04:58;;;;;;;2.47;1.90;;;12.80;82.90;;;;;;5053049;28;20519;-74
2022/11/15 09:07:25;;;;;;;4.20;2.10;;;12.80;82.10;;;;;;5054085;28;20459;-75
2022/11/15 09:09:52;;;;;;;2.50;1.90;;;12.90;81.60;;;;;;5061048;28;20423;-75
2022/11/15 09:12:20;;;;;;;2.75;2.03;;;13.00;81.10;;;;;;5061018;28;20785;-75
2022/11/15 09:14:47;;;;;;;2.70;1.95;;;13.00;80.60;;;;;;5056691;28;20427;-76
2022/11/15 09:17:13;;;;;;;2.65;2.10;;;13.10;80.10;;;;;;5051185;28;20435;-75
2022/11/15 09:19:40;;;;;;;2.58;2.38;;;13.30;79.50;;;;;;5059329;28;20430;-75
2022/11/15 09:22:08;;;;;;;2.50;2.20;;;13.40;79.60;;;;;;5051085;28;20437;-74
2022/11/15 09:24:35;;;;;;;2.58;2.10;;;13.60;79.10;;;;;;5056414;28;20439;-75
2022/11/15 09:27:02;;;;;;;2.40;2.13;;;13.60;79.20;;;;;;5059770;28;20450;-75
2022/11/15 09:29:30;;;;;;;3.97;2.15;;;13.90;78.30;;;;;;5058453;28;20432;-75
2022/11/15 09:31:56;;;;;;;2.70;2.00;;;14.10;76.80;;;;;;5052568;28;20427;-74
2022/11/15 09:34:23;;;;;;;2.20;2.00;;;14.40;75.90;;;;;;5058558;28;20440;-75
2022/11/15 09:36:50;;;;;;;2.63;1.98;;;14.60;75.10;;;;;;5063224;28;20514;-75
2022/11/15 09:39:17;;;;;;;2.20;1.90;;;14.60;72.80;;;;;;5063696;28;20507;-75
2022/11/15 09:42:14;;;;;;;4.00;1.80;;;14.70;72.50;;;;;;5059476;28;20487;-75
2022/11/15 09:44:55;;;;;;;1.77;1.40;;;14.80;70.90;;;;;;5047664;28;20438;-75
2022/11/15 09:47:42;;;;;;;2.47;1.55;;;14.80;68.10;;;;;;5059600;28;20442;-75
2022/11/15 09:50:12;;;;;;;2.75;1.30;;;14.80;67.80;;;;;;5053748;28;20474;-75
2022/11/15 09:52:42;;;;;;;2.70;1.20;;;14.80;67.30;;;;;;5057584;28;20519;-75
2022/11/15 09:55:11;;;;;;;2.40;1.30;;;14.80;66.60;;;;;;5063170;28;20439;-76
2022/11/15 09:57:45;;;;;;;1.83;1.10;;;14.80;65.90;;;;;;5059021;28;20436;-75
2022/11/15 10:00:18;;;;;;;1.23;0.80;;;14.60;64.20;;;;;;5058472;28;20427;-75
2022/11/15 10:02:59;;;;;;;2.75;1.00;;;14.50;65.00;;;;;;5063312;28;20431;-75
2022/11/15 10:05:28;;;;;;;1.47;0.90;;;14.40;64.90;;;;;;5053459;28;20947;-76
2022/11/15 10:08:03;;;;;;;2.50;1.23;;;14.50;66.00;;;;;;5057510;28;20530;-75
2022/11/15 10:10:38;;;;;;;2.15;1.50;;;14.80;65.00;;;;;;5053491;28;20438;-74
2022/11/15 10:13:05;;;;;;;3.03;1.10;;;14.90;64.70;;;;;;5057755;28;20458;-73
2022/11/15 10:15:34;;;;;;;1.90;1.20;;;15.00;63.50;;;;;;5056251;28;20514;-74
2022/11/15 10:18:16;;;;;;;2.40;1.20;;;15.20;63.30;;;;;;5055710;28;20540;-74
2022/11/15 10:20:49;;;;;;;4.15;1.23;;;15.40;62.40;;;;;;5051055;28;20499;-74
2022/11/15 10:23:18;;;;;;;1.80;1.10;;;15.70;61.50;;;;;;5056446;28;20433;-76
2022/11/15 10:25:45;;;;;;;3.25;1.10;;;15.70;58.20;;;;;;5055377;28;21077;-77
2022/11/15 10:28:22;;;;;;;6.60;1.33;;;15.70;58.40;;;;;;5050599;28;20906;-77
2022/11/15 10:30:53;;;;;;;1.67;1.10;;;15.70;56.60;;;;;;5062637;28;20913;-77
2022/11/15 10:33:33;;;;;;;1.48;0.90;;;15.60;56.60;;;;;;5068721;28;20415;-77
2022/11/15 10:36:17;;;;;;;2.80;1.40;;;15.80;57.10;;;;;;5052113;28;20879;-77
2022/11/15 10:38:56;;;;;;;3.10;1.58;;;16.00;56.60;;;;;;5061333;28;20506;-78
2022/11/15 10:41:30;;;;;;;1.87;0.90;;;16.20;56.30;;;;;;5055550;28;20425;-77
2022/11/15 10:44:11;;;;;;;2.38;1.00;;;16.40;53.40;;;;;;5062351;28;20514;-76
2022/11/15 10:46:41;;;;;;;1.67;1.08;;;16.50;54.40;;;;;;5063244;28;20876;-77
2022/11/15 10:49:14;;;;;;;1.42;0.90;;;16.70;53.90;;;;;;5063775;28;20456;-77
2022/11/15 10:51:45;;;;;;;1.73;0.80;;;16.80;53.20;;;;;;5059244;28;20431;-77
2022/11/15 10:54:14;;;;;;;2.17;1.20;;;16.50;52.80;;;;;;5063599;28;20801;-76
2022/11/15 10:56:42;;;;;;;1.40;1.10;;;16.30;53.80;;;;;;5057105;28;20431;-76
2022/11/15 10:59:17;;;;;;;1.38;0.98;;;16.20;54.30;;;;;;5063285;28;21600;-77
2022/11/15 11:01:49;;;;;;;1.30;0.90;;;16.20;54.10;;;;;;5062151;28;20518;-76
2022/11/15 11:04:16;;;;;;;2.50;1.10;;;16.00;54.30;;;;;;5063326;28;20483;-76
2022/11/15 11:06:50;;;;;;;1.45;0.70;;;16.00;54.30;;;;;;5055619;28;20446;-77
2022/11/15 11:09:35;;;;;;;2.30;1.40;;;16.00;53.70;;;;;;5054053;28;20427;-70
2022/11/15 11:12:03;;;;;;;1.70;0.90;;;15.90;54.10;;;;;;5061893;28;22372;-69
2022/11/15 11:14:33;;;;;;;2.60;1.40;;;16.00;53.90;;;;;;5060072;28;20427;-66
2022/11/15 11:17:06;;;;;;;3.15;1.20;;;16.10;53.20;;;;;;5060914;28;20522;-68
2022/11/15 11:19:49;;;;;;;2.50;1.02;;;16.00;52.00;;;;;;5054772;28;21027;-70
2022/11/15 11:22:25;;;;;;;2.35;1.13;;;15.90;52.30;;;;;;5054702;28;20511;-68
2022/11/15 11:25:05;;;;;;;1.50;0.90;;;15.80;53.30;;;;;;5059530;28;20438;-68
2022/11/15 11:27:42;;;;;;;3.50;1.30;;;15.80;53.30;;;;;;5061180;28;20818;-67
2022/11/15 11:30:15;;;;;;;1.75;0.68;;;15.90;52.90;;;;;;5061363;28;20425;-69
2022/11/15 11:33:03;;;;;;;1.30;0.70;;;16.00;52.80;;;;;;5062789;28;20442;-67
2022/11/15 11:35:35;;;;;;;3.20;1.08;;;16.00;52.60;;;;;;5048306;28;20436;-68
2022/11/15 11:38:28;;;;;;;1.40;0.80;;;16.10;52.30;;;;;;5063818;28;20523;-70
2022/11/15 11:41:04;;;;;;;1.88;0.80;;;16.20;52.90;;;;;;5059453;28;20466;-68
2022/11/15 11:43:42;;;;;;;2.85;0.70;;;16.60;51.60;;;;;;5057718;28;20425;-69
2022/11/15 11:46:33;;;;;;;3.35;1.00;;;16.70;51.40;;;;;;5058013;28;20429;-69
2022/11/15 11:51:38;;;;;;;2.50;0.90;;;16.60;51.20;;;;;;5080208;23;20801;-77
2022/11/15 11:54:07;;;;;;;1.80;1.00;;;16.60;51.90;;;;;;5065288;28;20431;-76
2022/11/15 11:56:37;;;;;;;2.20;0.80;;;16.80;52.10;;;;;;5062163;28;20428;-76
2022/11/15 11:59:13;;;;;;;2.03;0.90;;;17.10;51.30;;;;;;5065500;28;20428;-75
2022/11/15 12:01:44;;;;;;;2.00;0.93;;;17.20;50.50;;;;;;5041867;28;20431;-77
2022/11/15 12:04:17;;;;;;;2.22;0.90;;;17.20;50.50;;;;;;5049912;28;20436;-76
2022/11/15 12:06:54;;;;;;;2.63;0.88;;;17.10;50.90;;;;;;5059920;28;20433;-75
2022/11/15 12:09:29;;;;;;;1.65;0.70;;;17.20;50.80;;;;;;5056581;28;20437;-76
2022/11/15 12:12:03;;;;;;;2.00;1.02;;;17.20;50.20;;;;;;5047131;28;20489;-75
2022/11/15 12:14:36;;;;;;;2.20;0.90;;;17.30;50.40;;;;;;5039775;28;20502;-76
2022/11/15 12:17:03;;;;;;;2.25;1.10;;;17.40;50.30;;;;;;5048357;28;20531;-75
2022/11/15 12:19:31;;;;;;;1.98;0.93;;;17.40;50.50;;;;;;5046023;28;20463;-77
2022/11/15 12:22:04;;;;;;;2.33;1.02;;;17.30;50.50;;;;;;5050318;28;20451;-75
2022/11/15 12:24:38;;;;;;;2.70;1.20;;;17.20;51.10;;;;;;5046978;28;20437;-78
2022/11/15 12:27:14;;;;;;;1.23;0.77;;;17.40;51.50;;;;;;5039631;28;20522;-77
2022/11/15 12:29:42;;;;;;;2.13;0.90;;;17.90;50.50;;;;;;5045663;28;20437;-76
2022/11/15 12:32:22;;;;;;;2.13;0.80;;;18.30;49.30;;;;;;5040188;28;20435;-78
2022/11/15 12:34:52;;;;;;;4.00;1.20;;;18.60;48.50;;;;;;5044249;28;20429;-77
2022/11/15 12:37:48;;;;;;;2.35;0.80;;;18.50;48.40;;;;;;5048220;28;20433;-76
2022/11/15 12:40:26;;;;;;;2.20;0.80;;;18.50;48.70;;;;;;5043659;28;20438;-75
2022/11/15 12:43:29;;;;;;;2.10;0.98;;;18.20;49.00;;;;;;5048501;28;20406;-77
2022/11/15 12:46:02;;;;;;;3.00;0.90;;;17.60;50.70;;;;;;5015994;28;20433;-77
2022/11/15 12:48:50;;;;;;;2.72;0.90;;;17.20;51.80;;;;;;5044058;28;20460;-77
2022/11/15 12:51:21;;;;;;;3.13;1.10;;;17.10;52.40;;;;;;5043008;28;20456;-76
2022/11/15 12:53:48;;;;;;;3.30;1.27;;;16.90;53.30;;;;;;5042944;28;20463;-77
2022/11/15 12:56:23;;;;;;;3.00;1.10;;;16.70;53.90;;;;;;5044093;28;20519;-75
2022/11/15 12:58:53;;;;;;;3.50;1.10;;;16.60;54.20;;;;;;5041891;28;20530;-77
2022/11/15 13:01:58;;;;;;;2.93;1.10;;;16.40;54.70;;;;;;5044604;28;20436;-76
2022/11/15 13:04:28;;;;;;;2.20;1.00;;;16.30;55.70;;;;;;5046957;28;20437;-73
2022/11/15 13:06:58;;;;;;;2.97;1.20;;;16.20;56.10;;;;;;5042514;28;20491;-75
2022/11/15 13:09:52;;;;;;;3.63;1.10;;;16.10;56.80;;;;;;5040065;28;20429;-73
2022/11/15 13:12:50;;;;;;;2.10;1.40;;;16.00;56.80;;;;;;5033295;28;20429;-73
2022/11/15 13:15:39;;;;;;;2.30;1.20;;;15.80;57.80;;;;;;5040614;28;20435;-73
2022/11/15 13:18:29;;;;;;;1.90;1.20;;;15.60;61.60;;;;;;5044812;28;20440;-75
2022/11/15 13:20:56;;;;;;;2.08;1.52;;;15.50;62.90;;;;;;5050128;28;20425;-71
2022/11/15 13:23:25;;;;;;;3.13;1.73;;;15.40;63.70;;;;;;5056867;28;20485;-74